Time;durP1;ratioP1;P1;durP2;ratioP2;P2;SDS_P1;SDS_P2;PMS_P1;PMS_P2;Temp;Humidity;BMP_temperature;BMP_pressure;BME280_temperature;BME280_humidity;BME280_pressure;Samples;Min_cycle;Max_cycle;Signal;HPM_P1;HPM_P2
2021/12/15 00:00:57;;;;;;;123.68;69.53;;;-2.70;90.70;-3.10;99155.00;;;;5021602;28;86977;-59
2021/12/15 00:03:26;;;;;;;117.55;68.50;;;-2.70;90.60;-3.10;99149.00;;;;5021276;28;87326;-59
2021/12/15 00:05:53;;;;;;;96.78;60.97;;;-2.70;90.50;-3.10;99148.00;;;;5022087;28;88695;-59
2021/12/15 00:08:20;;;;;;;110.82;66.82;;;-2.70;90.60;-3.10;99151.00;;;;5020986;28;90731;-60
2021/12/15 00:10:48;;;;;;;98.43;62.83;;;-2.70;90.60;-3.10;99156.00;;;;5022168;28;87029;-60
2021/12/15 00:13:17;;;;;;;89.50;56.92;;;-2.70;90.60;-3.10;99158.00;;;;5022394;28;87327;-59
2021/12/15 00:15:46;;;;;;;99.30;64.47;;;-2.70;90.60;-3.10;99151.00;;;;5026231;28;87678;-59
2021/12/15 00:18:13;;;;;;;121.47;68.38;;;-2.70;90.40;-3.10;99148.00;;;;5028774;28;87537;-59
2021/12/15 00:20:41;;;;;;;102.82;65.97;;;-2.60;90.40;-3.10;99146.00;;;;5022923;28;86972;-59
2021/12/15 00:23:08;;;;;;;85.88;59.03;;;-2.60;90.40;-3.10;99139.00;;;;5025291;28;86541;-59
2021/12/15 00:25:39;;;;;;;92.45;62.03;;;-2.70;90.50;-3.10;99141.00;;;;5041830;28;87747;-59
2021/12/15 00:28:06;;;;;;;90.15;59.03;;;-2.60;90.60;-3.10;99142.00;;;;5042744;28;87582;-59
2021/12/15 00:30:34;;;;;;;84.45;56.95;;;-2.60;90.50;-3.10;99144.00;;;;5022931;28;87889;-59
2021/12/15 00:33:00;;;;;;;80.93;57.17;;;-2.60;90.50;-3.10;99143.00;;;;5021565;28;87107;-59
2021/12/15 00:35:26;;;;;;;85.75;59.75;;;-2.60;90.50;-3.10;99149.00;;;;5022137;28;87554;-59
2021/12/15 00:37:54;;;;;;;87.22;54.65;;;-2.60;90.50;-3.10;99139.00;;;;5021528;28;87486;-61
2021/12/15 00:40:23;;;;;;;91.60;60.58;;;-2.60;90.40;-3.00;99141.00;;;;5038346;28;87048;-60
2021/12/15 00:42:52;;;;;;;79.88;55.10;;;-2.60;90.40;-3.00;99137.00;;;;5038413;28;87002;-60
2021/12/15 00:45:18;;;;;;;82.13;55.88;;;-2.60;90.40;-3.00;99140.00;;;;5037664;28;87617;-60
2021/12/15 00:47:45;;;;;;;82.20;55.28;;;-2.60;90.70;-3.00;99138.00;;;;5038339;28;88453;-60
2021/12/15 00:50:15;;;;;;;87.15;58.72;;;-2.60;90.30;-3.00;99142.00;;;;5038243;28;87281;-60
2021/12/15 00:52:43;;;;;;;81.50;57.17;;;-2.60;90.40;-3.00;99141.00;;;;5022006;28;87176;-60
2021/12/15 00:55:17;;;;;;;96.93;60.05;;;-2.60;90.40;-3.00;99143.00;;;;5009576;28;89664;-60
2021/12/15 00:57:44;;;;;;;90.90;61.33;;;-2.60;90.40;-3.00;99136.00;;;;5020701;28;90440;-60
2021/12/15 01:00:23;;;;;;;132.55;74.28;;;-2.50;90.50;-3.00;99138.00;;;;5021189;28;87146;-60
2021/12/15 01:02:51;;;;;;;129.05;72.32;;;-2.60;90.40;-3.00;99131.00;;;;5021986;28;87240;-60
2021/12/15 01:05:22;;;;;;;112.18;62.08;;;-2.60;90.50;-3.10;99125.00;;;;5022047;28;87769;-59
2021/12/15 01:07:48;;;;;;;172.37;78.40;;;-2.60;90.80;-3.10;99109.00;;;;5021403;28;87435;-60
2021/12/15 01:10:26;;;;;;;104.82;63.70;;;-2.60;90.60;-3.10;99123.00;;;;5021252;28;87001;-59
2021/12/15 01:21:05;;;;;;;177.07;81.43;;;-2.70;90.80;-3.10;99110.00;;;;5020569;28;88196;-60
2021/12/15 01:23:33;;;;;;;132.25;67.00;;;-2.70;90.90;-3.10;99114.00;;;;5025406;28;87582;-60
2021/12/15 01:26:09;;;;;;;138.50;70.57;;;-2.70;90.90;-3.10;99102.00;;;;5041038;27;87571;-60
2021/12/15 01:28:35;;;;;;;147.98;72.07;;;-2.70;91.00;-3.20;99101.00;;;;5041104;27;87297;-60
2021/12/15 01:31:07;;;;;;;153.20;75.55;;;-2.70;91.10;-3.20;99096.00;;;;5040987;28;86883;-59
2021/12/15 01:33:35;;;;;;;159.25;74.20;;;-2.80;91.00;-3.20;99098.00;;;;5040873;28;86980;-61
2021/12/15 01:36:05;;;;;;;127.88;68.47;;;-2.70;91.20;-3.20;99103.00;;;;5040909;28;88044;-59
2021/12/15 01:38:36;;;;;;;209.20;85.68;;;-2.70;91.20;-3.20;99096.00;;;;5033504;28;86522;-59
2021/12/15 01:41:06;;;;;;;129.45;69.13;;;-2.70;91.20;-3.10;99095.00;;;;5036401;28;87264;-61
2021/12/15 01:49:15;;;;;;;196.25;82.60;;;-2.70;91.20;-3.10;99089.00;;;;5019080;28;88446;-59
2021/12/15 01:51:42;;;;;;;224.43;87.45;;;-2.70;91.20;-3.20;99089.00;;;;5019432;28;87010;-59
2021/12/15 01:54:10;;;;;;;158.27;71.43;;;-2.70;91.20;-3.20;99092.00;;;;5020509;28;87202;-59
2021/12/15 01:56:36;;;;;;;204.52;82.75;;;-2.70;91.30;-3.20;99083.00;;;;5020414;28;87707;-59
2021/12/15 01:59:04;;;;;;;218.10;87.95;;;-2.80;91.30;-3.20;99095.00;;;;5018834;28;88418;-60
2021/12/15 02:01:31;;;;;;;142.80;69.50;;;-2.80;91.40;-3.20;99089.00;;;;5019374;28;87134;-60
2021/12/15 02:03:58;;;;;;;168.68;75.22;;;-2.70;91.50;-3.20;99086.00;;;;5020921;28;86525;-60
2021/12/15 02:06:26;;;;;;;158.63;76.13;;;-2.70;91.50;-3.10;99088.00;;;;5018823;28;88772;-59
2021/12/15 02:08:52;;;;;;;261.45;91.45;;;-2.70;91.50;-3.10;99096.00;;;;5018683;28;88604;-59
2021/12/15 02:11:19;;;;;;;181.13;80.65;;;-2.70;91.40;-3.10;99093.00;;;;5018637;28;87953;-60
2021/12/15 02:13:45;;;;;;;136.18;71.50;;;-2.70;91.40;-3.10;99095.00;;;;5019777;28;87483;-59
2021/12/15 02:16:12;;;;;;;138.45;71.57;;;-2.60;91.60;-3.10;99085.00;;;;5027498;28;87653;-59
2021/12/15 02:18:42;;;;;;;199.23;81.60;;;-2.60;91.50;-3.10;99089.00;;;;5018368;28;87612;-60
2021/12/15 02:21:17;;;;;;;164.02;76.78;;;-2.70;91.40;-3.10;99091.00;;;;4999344;28;87070;-59
2021/12/15 02:23:52;;;;;;;110.97;60.65;;;-2.70;91.40;-3.10;99087.00;;;;5011702;28;86978;-60
2021/12/15 02:26:26;;;;;;;169.90;74.10;;;-2.60;91.60;-3.00;99089.00;;;;5038847;28;88703;-60
2021/12/15 02:29:01;;;;;;;104.10;61.17;;;-2.60;91.50;-3.00;99098.00;;;;5040460;28;87827;-61
2021/12/15 02:39:11;;;;;;;127.18;66.63;;;-2.50;91.50;-3.00;99086.00;;;;5010600;28;89501;-59
2021/12/15 02:41:39;;;;;;;108.10;61.45;;;-2.60;91.30;-3.00;99078.00;;;;5035893;28;86962;-60
2021/12/15 02:44:15;;;;;;;144.82;71.25;;;-2.50;91.40;-3.00;99086.00;;;;5019832;28;87117;-60
2021/12/15 02:46:43;;;;;;;104.28;60.92;;;-2.50;91.30;-2.90;99075.00;;;;5019601;28;87575;-60
2021/12/15 02:49:12;;;;;;;154.57;74.63;;;-2.50;91.30;-3.00;99076.00;;;;5019439;28;87250;-59
2021/12/15 02:51:42;;;;;;;159.27;76.70;;;-2.50;91.20;-2.90;99070.00;;;;5019465;28;87201;-60
2021/12/15 02:54:12;;;;;;;93.70;57.25;;;-2.50;91.20;-2.90;99079.00;;;;5020050;28;86652;-59
2021/12/15 02:56:40;;;;;;;85.97;53.70;;;-2.50;91.30;-2.90;99080.00;;;;5019396;28;87601;-60
2021/12/15 02:59:08;;;;;;;126.60;66.80;;;-2.50;91.30;-2.90;99078.00;;;;5019768;28;87981;-60
2021/12/15 03:02:13;;;;;;;89.38;55.65;;;-2.50;91.20;-2.90;99077.00;;;;5018833;28;87978;-60
2021/12/15 03:04:55;;;;;;;100.68;58.00;;;-2.50;91.20;-2.90;99071.00;;;;5018960;28;87106;-59
2021/12/15 03:15:30;;;;;;;115.05;63.78;;;-2.40;91.10;-2.80;99068.00;;;;5001231;28;86958;-59
2021/12/15 03:18:19;;;;;;;97.20;58.28;;;-2.50;91.00;-2.80;99077.00;;;;5028015;27;87587;-59
2021/12/15 03:20:56;;;;;;;83.65;54.83;;;-2.40;91.10;-2.90;99068.00;;;;5018743;28;88392;-59
2021/12/15 03:23:25;;;;;;;107.93;60.00;;;-2.40;91.00;-2.90;99069.00;;;;5018517;28;87088;-59
2021/12/15 03:25:53;;;;;;;92.50;57.95;;;-2.40;91.00;-2.90;99065.00;;;;5020191;28;87138;-58
2021/12/15 03:39:24;;;;;;;86.75;51.90;;;-2.50;91.00;-2.90;99073.00;;;;5022555;28;88149;-58
2021/12/15 03:41:58;;;;;;;112.10;60.05;;;-2.40;91.10;-2.90;99061.00;;;;5020841;28;88149;-61
2021/12/15 03:44:25;;;;;;;94.82;56.47;;;-2.40;91.00;-2.90;99076.00;;;;5022735;28;87234;-61
2021/12/15 03:46:52;;;;;;;88.35;54.03;;;-2.40;91.00;-2.90;99066.00;;;;5022354;28;86592;-60
2021/12/15 03:49:18;;;;;;;100.10;58.78;;;-2.50;90.90;-3.00;99067.00;;;;5022264;28;87603;-61
2021/12/15 03:51:45;;;;;;;115.65;63.08;;;-2.50;91.00;-2.90;99056.00;;;;5021783;28;87104;-61
2021/12/15 03:54:11;;;;;;;124.10;62.53;;;-2.50;91.10;-3.00;99059.00;;;;5021033;28;87860;-60
2021/12/15 03:56:42;;;;;;;110.47;59.75;;;-2.50;91.10;-3.00;99056.00;;;;5033118;28;87326;-60
2021/12/15 03:59:08;;;;;;;112.23;59.97;;;-2.50;91.10;-3.00;99059.00;;;;5034332;28;87758;-60
2021/12/15 04:01:35;;;;;;;99.88;54.25;;;-2.50;91.20;-3.00;99063.00;;;;5021926;28;87500;-60
2021/12/15 04:04:02;;;;;;;105.53;58.60;;;-2.60;91.10;-3.00;99059.00;;;;5020416;28;86910;-60
2021/12/15 04:06:34;;;;;;;98.35;53.58;;;-2.60;91.20;-3.00;99065.00;;;;5020652;28;87134;-61
2021/12/15 04:09:01;;;;;;;;;;;-2.60;91.20;-3.00;99063.00;;;;5021947;28;87678;-60
2021/12/15 04:11:33;;;;;;;96.60;54.00;;;-2.60;91.20;-3.10;99054.00;;;;5023109;28;86949;-60
2021/12/15 04:14:03;;;;;;;83.47;49.72;;;-2.60;91.10;-3.10;99044.00;;;;5021512;28;87130;-60
2021/12/15 04:19:11;;;;;;;68.88;43.83;;;-2.60;91.20;-3.00;99051.00;;;;5020334;28;88767;-60
2021/12/15 04:21:39;;;;;;;73.30;45.17;;;-2.60;91.10;-3.10;99042.00;;;;5020735;28;88701;-60
2021/12/15 04:24:07;;;;;;;57.80;34.30;;;-2.60;91.10;-3.10;99041.00;;;;5028990;28;87097;-59
2021/12/15 04:26:33;;;;;;;53.90;35.20;;;-2.70;90.70;-3.10;99031.00;;;;5021404;28;86907;-60
2021/12/15 04:29:00;;;;;;;53.42;34.17;;;-2.60;90.80;-3.10;99032.00;;;;5019684;28;88834;-61
2021/12/15 04:31:33;;;;;;;50.80;35.10;;;-2.60;90.90;-3.10;99038.00;;;;5021062;28;88096;-60
2021/12/15 04:34:07;;;;;;;59.45;36.88;;;-2.60;90.90;-3.10;99034.00;;;;5021213;28;87061;-60
2021/12/15 04:36:43;;;;;;;55.58;37.85;;;-2.60;91.00;-3.10;99029.00;;;;5022082;28;86434;-60
2021/12/15 04:39:15;;;;;;;56.55;34.38;;;-2.60;91.10;-3.10;99030.00;;;;5020967;28;87731;-61
2021/12/15 04:41:46;;;;;;;;;;;-2.60;91.00;-3.10;99023.00;;;;5022130;28;87466;-60
2021/12/15 04:44:15;;;;;;;44.97;29.50;;;-2.60;91.00;-3.10;99034.00;;;;5022354;28;88344;-62
2021/12/15 04:46:50;;;;;;;49.03;31.90;;;-2.60;90.90;-3.10;99026.00;;;;5020906;28;86980;-62
2021/12/15 04:49:19;;;;;;;47.17;30.33;;;-2.60;90.80;-3.10;99019.00;;;;5021136;28;88149;-62
2021/12/15 04:51:47;;;;;;;51.88;33.22;;;-2.60;90.90;-3.10;99014.00;;;;5017093;28;87477;-60
2021/12/15 04:54:16;;;;;;;60.00;35.83;;;-2.60;91.00;-3.10;99015.00;;;;5015312;28;87087;-60
2021/12/15 04:56:42;;;;;;;54.10;35.45;;;-2.60;91.00;-3.00;99020.00;;;;5019529;28;86980;-61
2021/12/15 04:59:09;;;;;;;51.05;33.58;;;-2.50;91.10;-3.00;99018.00;;;;5020784;28;87607;-60
2021/12/15 05:01:35;;;;;;;52.60;31.77;;;-2.60;91.00;-3.00;99027.00;;;;5020922;28;87748;-60
2021/12/15 05:04:01;;;;;;;51.72;33.30;;;-2.50;91.20;-2.90;99025.00;;;;5020649;28;86894;-61
2021/12/15 05:06:35;;;;;;;50.63;32.40;;;-2.50;91.10;-2.90;99027.00;;;;5021313;28;87078;-60
2021/12/15 05:09:03;;;;;;;52.78;32.33;;;-2.50;91.00;-2.90;99022.00;;;;4992030;28;89146;-61
2021/12/15 05:11:29;;;;;;;56.90;33.85;;;-2.40;91.10;-2.90;99023.00;;;;5009694;28;88979;-63
2021/12/15 05:13:55;;;;;;;43.28;28.90;;;-2.40;91.10;-2.90;99027.00;;;;5021099;28;87431;-63
2021/12/15 05:16:21;;;;;;;48.17;31.00;;;-2.40;91.10;-2.80;99040.00;;;;5024098;28;87372;-63
2021/12/15 05:18:49;;;;;;;48.88;32.50;;;-2.30;91.00;-2.80;99024.00;;;;5019936;28;88278;-63
2021/12/15 05:21:16;;;;;;;51.88;34.25;;;-2.30;91.00;-2.80;99028.00;;;;5019645;28;87531;-64
2021/12/15 05:23:45;;;;;;;54.08;34.42;;;-2.40;90.90;-2.80;99029.00;;;;5027739;28;87330;-64
2021/12/15 05:26:12;;;;;;;50.38;33.08;;;-2.30;91.00;-2.70;99032.00;;;;5040753;28;86280;-63
2021/12/15 05:28:39;;;;;;;50.17;34.05;;;-2.30;91.00;-2.70;99027.00;;;;5022497;28;87549;-64
2021/12/15 05:31:05;;;;;;;58.88;36.20;;;-2.30;91.00;-2.70;99034.00;;;;5019430;28;88002;-63
2021/12/15 05:33:31;;;;;;;52.42;33.13;;;-2.20;91.00;-2.70;99030.00;;;;5019530;28;88333;-64
2021/12/15 05:35:57;;;;;;;52.08;32.67;;;-2.30;90.90;-2.60;99031.00;;;;5019481;28;87272;-64
2021/12/15 05:38:25;;;;;;;50.20;32.38;;;-2.20;90.90;-2.60;99026.00;;;;5017070;28;87570;-63
2021/12/15 05:40:53;;;;;;;57.75;34.05;;;-2.20;90.90;-2.60;99021.00;;;;5010233;28;86988;-65
2021/12/15 05:43:20;;;;;;;55.33;33.53;;;-2.20;90.80;-2.60;99017.00;;;;5000202;28;87049;-63
2021/12/15 05:45:48;;;;;;;51.88;32.80;;;-2.20;90.80;-2.60;99030.00;;;;4999927;28;86908;-64
2021/12/15 05:48:15;;;;;;;48.63;31.50;;;-2.20;90.90;-2.60;99020.00;;;;4999478;28;87564;-63
2021/12/15 05:50:44;;;;;;;45.83;30.65;;;-2.20;90.90;-2.60;99012.00;;;;4998746;28;88082;-63
2021/12/15 05:53:11;;;;;;;46.95;31.50;;;-2.20;90.80;-2.60;99015.00;;;;4999847;28;87208;-63
2021/12/15 05:55:39;;;;;;;53.92;33.95;;;-2.20;90.90;-2.60;99017.00;;;;5017650;28;87191;-64
2021/12/15 05:58:06;;;;;;;52.95;32.20;;;-2.10;90.80;-2.60;99032.00;;;;5018964;28;88848;-63
2021/12/15 06:00:37;;;;;;;58.45;35.85;;;-2.20;90.70;-2.50;99027.00;;;;5019847;28;88884;-64
2021/12/15 06:03:04;;;;;;;54.40;34.25;;;-2.10;90.90;-2.60;99022.00;;;;5019730;28;87068;-64
2021/12/15 06:05:32;;;;;;;76.13;40.67;;;-2.10;90.90;-2.60;99019.00;;;;5019626;28;87363;-64
2021/12/15 06:07:58;;;;;;;62.72;35.60;;;-2.10;90.80;-2.50;99031.00;;;;5019397;28;87525;-63
2021/12/15 06:10:28;;;;;;;58.58;35.72;;;-2.10;91.10;-2.50;99027.00;;;;5019365;28;87850;-64
2021/12/15 06:12:56;;;;;;;53.55;31.80;;;-2.10;91.00;-2.50;99037.00;;;;5020133;28;87443;-64
2021/12/15 06:15:25;;;;;;;57.47;34.38;;;-2.10;91.00;-2.60;99025.00;;;;5020914;28;86308;-63
2021/12/15 06:18:19;;;;;;;49.05;31.70;;;-2.10;91.00;-2.60;99029.00;;;;5028972;27;87501;-63
2021/12/15 06:20:49;;;;;;;48.20;29.98;;;-2.20;90.80;-2.60;99035.00;;;;5018989;28;87453;-63
2021/12/15 06:23:20;;;;;;;47.50;28.90;;;-2.20;90.90;-2.60;99032.00;;;;5022978;28;87922;-62
2021/12/15 06:25:58;;;;;;;47.78;29.15;;;-2.20;90.80;-2.60;99020.00;;;;5039160;28;86975;-62
2021/12/15 06:28:27;;;;;;;45.95;30.05;;;-2.20;90.80;-2.60;99031.00;;;;5023022;28;87647;-63
2021/12/15 06:30:56;;;;;;;42.85;28.38;;;-2.10;90.70;-2.60;99019.00;;;;5011747;28;87461;-63
2021/12/15 06:33:24;;;;;;;47.92;30.80;;;-2.10;90.70;-2.60;99031.00;;;;5015531;28;87361;-65
2021/12/15 06:35:58;;;;;;;51.45;32.00;;;-2.10;90.90;-2.60;99025.00;;;;5017725;28;87367;-63
2021/12/15 06:38:29;;;;;;;47.35;31.13;;;-2.20;90.80;-2.60;99020.00;;;;5011431;28;87700;-63
2021/12/15 06:40:56;;;;;;;52.67;33.45;;;-2.10;91.00;-2.60;99033.00;;;;5009036;28;87488;-64
2021/12/15 06:43:24;;;;;;;57.83;34.88;;;-2.10;90.90;-2.60;99037.00;;;;5019689;28;87239;-64
2021/12/15 06:59:18;;;;;;;62.40;40.47;;;-2.10;91.00;-2.50;99023.00;;;;5012186;28;88217;-63
2021/12/15 07:01:44;;;;;;;44.45;31.17;;;-2.00;91.00;-2.50;99021.00;;;;5001573;28;88421;-61
2021/12/15 07:04:10;;;;;;;45.80;31.38;;;-2.10;91.00;-2.50;99009.00;;;;5001211;28;87098;-61
2021/12/15 07:06:36;;;;;;;45.40;30.67;;;-2.00;91.00;-2.40;99007.00;;;;5005955;28;86213;-61
2021/12/15 07:09:03;;;;;;;42.17;27.15;;;-2.00;90.90;-2.40;99013.00;;;;5001874;28;88638;-62
2021/12/15 07:11:29;;;;;;;42.05;30.05;;;-2.00;90.90;-2.40;99012.00;;;;5017813;28;87512;-62
2021/12/15 07:13:55;;;;;;;45.17;30.85;;;-1.90;90.90;-2.40;99023.00;;;;5021746;28;88450;-62
2021/12/15 07:16:23;;;;;;;43.53;28.77;;;-1.90;90.70;-2.40;99013.00;;;;5023745;28;87168;-61
2021/12/15 07:19:03;;;;;;;45.30;29.95;;;-2.00;90.70;-2.40;99019.00;;;;5011050;28;87712;-61
2021/12/15 07:21:34;;;;;;;41.90;26.67;;;-2.00;90.70;-2.40;99026.00;;;;5005830;28;88295;-61
2021/12/15 07:24:01;;;;;;;34.95;24.55;;;-1.90;90.70;-2.40;99016.00;;;;5030899;28;87143;-63
2021/12/15 07:26:27;;;;;;;40.13;27.02;;;-1.90;90.70;-2.40;99028.00;;;;5022366;28;86862;-62
2021/12/15 07:28:53;;;;;;;38.30;26.52;;;-1.90;90.70;-2.30;99030.00;;;;5022242;28;87689;-61
2021/12/15 07:31:20;;;;;;;36.95;24.85;;;-1.90;90.70;-2.30;99031.00;;;;5022467;28;87425;-62
2021/12/15 07:33:47;;;;;;;39.30;26.33;;;-1.90;90.70;-2.20;99030.00;;;;5006307;28;86985;-62
2021/12/15 07:36:13;;;;;;;43.38;28.35;;;-1.80;90.80;-2.20;99042.00;;;;5002175;28;87021;-62
2021/12/15 07:38:43;;;;;;;43.95;28.20;;;-1.80;90.80;-2.20;99047.00;;;;5009185;28;88481;-62
2021/12/15 07:41:25;;;;;;;43.10;28.83;;;-1.80;90.70;-2.20;99044.00;;;;5021933;28;89507;-62
2021/12/15 07:43:53;;;;;;;;;;;-1.80;90.60;-2.20;99052.00;;;;5012711;28;87166;-62
2021/12/15 07:46:19;;;;;;;40.88;27.15;;;-1.70;90.60;-2.20;99049.00;;;;5012328;28;87034;-62
2021/12/15 07:48:46;;;;;;;41.30;29.25;;;-1.70;90.70;-2.10;99038.00;;;;5007291;28;87572;-62
2021/12/15 07:51:13;;;;;;;41.03;28.60;;;-1.70;90.60;-2.10;99039.00;;;;5004320;28;87430;-62
2021/12/15 07:53:41;;;;;;;44.65;29.85;;;-1.70;90.70;-2.10;99044.00;;;;5006762;28;87798;-63
2021/12/15 07:56:08;;;;;;;36.75;25.67;;;-1.70;90.60;-2.10;99047.00;;;;5030133;28;86575;-62
2021/12/15 07:58:34;;;;;;;51.92;31.55;;;-1.60;90.60;-2.10;99044.00;;;;5041796;27;87069;-62
2021/12/15 08:01:02;;;;;;;51.30;31.88;;;-1.60;90.50;-2.10;99043.00;;;;5041941;28;87398;-61
2021/12/15 08:03:30;;;;;;;47.30;32.35;;;-1.60;90.50;-2.10;99042.00;;;;5040712;27;87875;-61
2021/12/15 08:05:58;;;;;;;47.40;30.95;;;-1.60;90.50;-2.00;99049.00;;;;5042099;27;86952;-62
2021/12/15 08:08:24;;;;;;;50.83;32.53;;;-1.60;90.50;-2.00;99040.00;;;;5041090;27;89172;-62
2021/12/15 08:10:56;;;;;;;50.55;33.10;;;-1.60;90.40;-2.00;99040.00;;;;5039328;28;88262;-62
2021/12/15 08:13:25;;;;;;;50.53;31.00;;;-1.60;90.40;-2.00;99026.00;;;;5040500;27;87117;-61
2021/12/15 08:15:51;;;;;;;53.35;33.00;;;-1.60;90.40;-2.00;99024.00;;;;5036583;27;87163;-63
2021/12/15 08:18:18;;;;;;;45.08;28.60;;;-1.60;90.30;-2.00;99021.00;;;;5011730;28;87706;-61
2021/12/15 08:20:44;;;;;;;47.97;31.05;;;-1.60;90.40;-1.90;99016.00;;;;5004646;28;88373;-62
2021/12/15 08:23:11;;;;;;;51.63;31.75;;;-1.50;90.30;-1.90;99021.00;;;;5030885;28;87349;-57
2021/12/15 08:25:38;;;;;;;51.67;33.55;;;-1.40;90.30;-1.80;99030.00;;;;5041733;27;87040;-55
2021/12/15 08:28:07;;;;;;;51.03;32.28;;;-1.40;90.20;-1.80;99030.00;;;;5039689;28;88475;-57
2021/12/15 08:30:35;;;;;;;49.88;31.77;;;-1.40;90.10;-1.80;99029.00;;;;5019779;28;90696;-55
2021/12/15 08:33:08;;;;;;;58.90;35.63;;;-1.40;90.20;-1.80;99019.00;;;;5020557;28;87052;-54
2021/12/15 08:35:40;;;;;;;52.17;33.15;;;-1.40;90.10;-1.80;99032.00;;;;5020929;28;87228;-56
2021/12/15 08:38:09;;;;;;;62.45;35.10;;;-1.40;90.20;-1.80;99025.00;;;;5016331;28;87735;-54
2021/12/15 08:40:36;;;;;;;52.13;32.92;;;-1.40;90.10;-1.70;99035.00;;;;5020782;28;87330;-61
2021/12/15 08:43:06;;;;;;;65.95;36.95;;;-1.40;90.10;-1.70;99023.00;;;;5020773;28;86936;-61
2021/12/15 08:45:34;;;;;;;49.72;31.83;;;-1.40;90.10;-1.70;99017.00;;;;5021065;28;86629;-62
2021/12/15 08:48:02;;;;;;;50.88;31.58;;;-1.30;90.10;-1.70;99022.00;;;;5020323;28;87587;-62
2021/12/15 08:50:32;;;;;;;51.90;31.60;;;-1.20;90.00;-1.60;99014.00;;;;5020056;28;87287;-62
2021/12/15 08:53:00;;;;;;;48.92;30.90;;;-1.20;89.80;-1.50;99020.00;;;;5018674;28;88925;-62
2021/12/15 08:55:27;;;;;;;47.53;30.77;;;-1.10;89.40;-1.50;99030.00;;;;5018617;28;87278;-63
2021/12/15 08:57:56;;;;;;;53.67;34.13;;;-1.10;89.40;-1.40;99019.00;;;;5020262;28;86925;-63
2021/12/15 09:00:26;;;;;;;64.43;34.85;;;-1.00;88.70;-1.40;99013.00;;;;5020287;28;88934;-62
2021/12/15 09:02:54;;;;;;;50.67;32.13;;;-1.00;89.00;-1.30;99022.00;;;;5027310;28;86932;-62
2021/12/15 09:05:22;;;;;;;58.50;33.90;;;-1.00;88.80;-1.30;99019.00;;;;5020940;28;86992;-55
2021/12/15 09:07:56;;;;;;;51.38;31.98;;;-0.90;88.70;-1.30;99015.00;;;;5020502;28;87663;-59
2021/12/15 09:10:27;;;;;;;57.47;32.78;;;-0.90;88.70;-1.20;99002.00;;;;5019178;28;87415;-62
2021/12/15 09:12:53;;;;;;;47.30;29.73;;;-0.90;88.30;-1.20;99003.00;;;;5019719;28;87116;-53
2021/12/15 09:15:20;;;;;;;51.67;32.15;;;-0.90;87.90;-1.20;98998.00;;;;5014768;28;87101;-55
2021/12/15 09:17:47;;;;;;;54.78;31.35;;;-0.90;87.50;-1.30;98998.00;;;;5029262;27;89040;-58
2021/12/15 09:20:19;;;;;;;51.25;32.25;;;-1.00;88.20;-1.40;98995.00;;;;5020589;28;88562;-61
2021/12/15 09:22:45;;;;;;;46.63;30.23;;;-1.00;88.50;-1.40;98994.00;;;;5020708;28;86969;-56
2021/12/15 09:25:13;;;;;;;45.92;27.73;;;-1.00;88.00;-1.40;98997.00;;;;5019664;27;87083;-56
2021/12/15 09:27:41;;;;;;;44.47;27.70;;;-1.00;88.30;-1.30;98999.00;;;;5016252;28;87779;-56
2021/12/15 09:30:18;;;;;;;41.85;27.50;;;-1.00;88.40;-1.40;99004.00;;;;5014947;28;87649;-58
2021/12/15 09:32:45;;;;;;;45.38;28.90;;;-1.00;87.60;-1.40;98999.00;;;;5015210;28;87341;-60
2021/12/15 09:35:14;;;;;;;44.70;26.48;;;-1.00;87.90;-1.40;98995.00;;;;5018491;28;86645;-53
2021/12/15 09:37:41;;;;;;;44.38;27.23;;;-1.00;88.10;-1.40;98979.00;;;;5018469;28;88753;-60
2021/12/15 09:40:10;;;;;;;44.78;27.77;;;-1.00;88.10;-1.40;98988.00;;;;5011100;28;88679;-57
2021/12/15 09:42:39;;;;;;;47.28;29.50;;;-1.00;88.10;-1.40;98982.00;;;;5014981;28;88380;-57
2021/12/15 09:45:42;;;;;;;50.65;31.02;;;-1.00;88.50;-1.40;98975.00;;;;5018724;28;87452;-58
2021/12/15 09:56:22;;;;;;;47.63;28.50;;;-1.00;88.50;-1.40;98985.00;;;;5015151;28;87137;-58
2021/12/15 10:05:01;;;;;;;41.67;27.13;;;-1.00;88.80;-1.30;98946.00;;;;5018489;28;87269;-57
2021/12/15 10:19:41;;;;;;;48.28;30.48;;;-1.00;88.90;-1.30;98951.00;;;;5014439;28;87214;-51
2021/12/15 10:22:17;;;;;;;45.22;30.65;;;-1.00;88.70;-1.30;98941.00;;;;5019471;28;87843;-57
2021/12/15 10:24:59;;;;;;;50.92;32.45;;;-0.90;88.80;-1.30;98946.00;;;;5012993;28;87444;-59
2021/12/15 10:27:52;;;;;;;47.85;30.67;;;-0.90;88.90;-1.30;98937.00;;;;4998365;28;86901;-53
2021/12/15 10:30:31;;;;;;;55.53;34.05;;;-1.00;89.20;-1.30;98929.00;;;;5011218;28;86667;-52
2021/12/15 10:33:01;;;;;;;60.47;34.67;;;-1.00;89.40;-1.30;98942.00;;;;5016099;28;87679;-56
2021/12/15 10:35:37;;;;;;;48.45;30.92;;;-0.90;89.60;-1.30;98952.00;;;;5018393;28;87355;-57
2021/12/15 10:38:30;;;;;;;52.45;32.15;;;-0.90;89.50;-1.30;98944.00;;;;5019403;28;88132;-58
2021/12/15 10:41:26;;;;;;;49.95;30.88;;;-0.90;89.50;-1.30;98927.00;;;;5017102;28;86880;-57
2021/12/15 10:43:56;;;;;;;45.55;29.38;;;-0.90;89.70;-1.30;98937.00;;;;5016434;28;87643;-59
2021/12/15 10:46:25;;;;;;;47.70;29.40;;;-0.90;89.50;-1.30;98937.00;;;;5015252;28;87469;-58
2021/12/15 10:49:29;;;;;;;43.75;29.05;;;-0.90;89.70;-1.30;98931.00;;;;5014781;28;87456;-55
2021/12/15 10:52:06;;;;;;;47.67;29.55;;;-0.90;89.80;-1.30;98919.00;;;;5015133;28;87193;-61
2021/12/15 10:54:40;;;;;;;54.92;33.15;;;-0.80;90.00;-1.20;98938.00;;;;5015480;28;87786;-61
2021/12/15 10:57:12;;;;;;;55.33;33.75;;;-0.80;89.50;-1.20;98933.00;;;;5016636;28;87444;-62
2021/12/15 10:59:46;;;;;;;45.03;29.17;;;-0.80;89.90;-1.10;98933.00;;;;5019353;28;86983;-56
2021/12/15 11:02:19;;;;;;;43.60;27.80;;;-0.80;89.30;-1.10;98930.00;;;;5018300;28;87082;-58
2021/12/15 11:05:10;;;;;;;40.72;26.55;;;-0.70;90.00;-1.10;98937.00;;;;5017550;28;89058;-53
2021/12/15 11:07:53;;;;;;;55.40;29.92;;;-0.70;89.60;-1.00;98918.00;;;;5018650;28;89667;-58
2021/12/15 11:10:31;;;;;;;46.10;29.58;;;-0.60;89.30;-1.00;98933.00;;;;5018746;28;87464;-55
2021/12/15 11:13:10;;;;;;;44.50;28.15;;;-0.60;89.40;-1.00;98938.00;;;;5039086;27;87306;-53
2021/12/15 11:15:42;;;;;;;46.63;29.73;;;-0.60;89.00;-1.00;98923.00;;;;5032755;28;87574;-54
2021/12/15 11:18:31;;;;;;;44.88;27.92;;;-0.60;89.10;-1.00;98929.00;;;;5016564;28;89431;-57
2021/12/15 11:21:07;;;;;;;43.15;27.77;;;-0.60;89.10;-1.00;98924.00;;;;5017058;28;87372;-55
2021/12/15 11:23:34;;;;;;;38.75;26.30;;;-0.70;88.90;-1.00;98925.00;;;;5018043;28;86370;-53
2021/12/15 11:26:11;;;;;;;42.63;27.50;;;-0.60;88.90;-1.00;98939.00;;;;5018337;28;87728;-55
2021/12/15 11:28:48;;;;;;;40.17;26.30;;;-0.70;88.80;-1.00;98929.00;;;;5018124;28;87594;-55
2021/12/15 11:31:20;;;;;;;41.15;25.85;;;-0.70;88.80;-1.10;98929.00;;;;5034682;28;87865;-56
2021/12/15 11:33:57;;;;;;;41.00;27.77;;;-0.70;89.40;-1.10;98934.00;;;;5018075;28;86918;-53
2021/12/15 11:36:31;;;;;;;43.03;25.92;;;-0.70;89.30;-1.10;98926.00;;;;5017272;28;87996;-55
2021/12/15 11:39:12;;;;;;;41.75;27.75;;;-0.70;89.10;-1.10;98937.00;;;;5016310;28;88795;-55
2021/12/15 11:41:46;;;;;;;44.65;27.50;;;-0.70;89.50;-1.10;98934.00;;;;5018776;28;86975;-58
2021/12/15 11:44:17;;;;;;;46.13;27.30;;;-0.70;89.30;-1.10;98928.00;;;;5034105;28;87033;-55
2021/12/15 11:47:01;;;;;;;46.50;29.63;;;-0.80;89.40;-1.10;98935.00;;;;5018012;28;87516;-52
2021/12/15 11:49:37;;;;;;;43.42;27.63;;;-0.70;89.80;-1.10;98934.00;;;;5021948;28;86740;-58
2021/12/15 11:52:14;;;;;;;38.33;27.15;;;-0.80;89.60;-1.20;98936.00;;;;5022324;28;87010;-56
2021/12/15 11:54:49;;;;;;;39.35;26.42;;;-0.80;89.50;-1.20;98930.00;;;;5018741;28;87387;-55
2021/12/15 11:57:23;;;;;;;42.55;26.63;;;-0.90;89.50;-1.30;98934.00;;;;5000455;28;88748;-56
2021/12/15 12:00:14;;;;;;;44.05;28.08;;;-0.90;90.00;-1.30;98948.00;;;;5019348;28;87906;-58
2021/12/15 12:03:00;;;;;;;42.42;27.27;;;-0.90;90.00;-1.30;98941.00;;;;5001826;28;86980;-60
2021/12/15 12:05:37;;;;;;;46.88;29.42;;;-0.90;90.00;-1.40;98929.00;;;;5001536;28;87310;-50
2021/12/15 12:08:10;;;;;;;41.13;27.63;;;-1.00;90.10;-1.40;98945.00;;;;5014736;28;87840;-56
2021/12/15 12:10:47;;;;;;;42.90;28.25;;;-1.00;90.10;-1.40;98938.00;;;;5015442;28;87812;-55
2021/12/15 12:13:26;;;;;;;44.83;28.80;;;-1.10;90.10;-1.40;98945.00;;;;5019301;28;86974;-55
2021/12/15 12:16:00;;;;;;;43.10;28.55;;;-1.10;90.30;-1.50;98946.00;;;;5027168;28;86498;-51
2021/12/15 12:18:30;;;;;;;44.67;28.05;;;-1.10;90.30;-1.50;98944.00;;;;5025752;28;87801;-57